createdAt,value
2022-11-19T00:02:19.267Z,25.40
2022-11-19T00:04:48.186Z,25.40
2022-11-19T00:07:17.090Z,25.40
2022-11-19T00:09:46.007Z,25.50
2022-11-19T00:12:33.250Z,25.50
2022-11-19T00:15:02.168Z,25.50
2022-11-19T00:17:31.380Z,25.60
2022-11-19T00:20:00.272Z,25.60
2022-11-19T00:22:29.184Z,25.60
2022-11-19T00:24:58.136Z,25.70
2022-11-19T00:27:27.174Z,25.70
2022-11-19T00:29:56.104Z,25.80
2022-11-19T00:32:25.054Z,25.80
2022-11-19T00:34:53.989Z,25.80
2022-11-19T00:37:22.961Z,25.90
2022-11-19T00:39:51.908Z,25.90
2022-11-19T00:42:20.812Z,26.00
2022-11-19T00:44:49.706Z,26.00
2022-11-19T00:47:18.916Z,26.10
2022-11-19T00:49:47.816Z,26.20
2022-11-19T00:52:16.667Z,26.30
2022-11-19T00:54:45.761Z,26.40
2022-11-19T00:57:14.613Z,26.50
2022-11-19T00:59:43.584Z,26.60
2022-11-19T01:02:12.619Z,26.70
2022-11-19T01:04:41.537Z,26.90
2022-11-19T01:07:10.421Z,27.00
2022-11-19T01:09:39.261Z,27.10
2022-11-19T01:12:08.167Z,27.10
2022-11-19T01:14:37.147Z,27.20
2022-11-19T01:17:06.008Z,27.30
2022-11-19T01:19:34.919Z,27.40
2022-11-19T01:22:03.852Z,27.50
2022-11-19T01:24:32.938Z,27.60
2022-11-19T01:27:02.017Z,27.70
2022-11-19T01:29:34.613Z,27.70
2022-11-19T01:32:03.528Z,27.80
2022-11-19T01:34:32.465Z,27.80
2022-11-19T01:37:01.413Z,27.80
2022-11-19T01:39:30.353Z,27.90
2022-11-19T01:41:59.307Z,27.90
2022-11-19T01:45:08.193Z,27.90
2022-11-19T01:47:37.088Z,28.00
2022-11-19T01:50:06.529Z,28.00
2022-11-19T01:52:35.419Z,28.00
2022-11-19T01:55:04.801Z,28.00
2022-11-19T01:57:33.844Z,28.10
2022-11-19T02:00:02.892Z,28.10
2022-11-19T02:02:32.153Z,28.10
2022-11-19T02:05:01.787Z,28.10
2022-11-19T02:07:33.849Z,28.10
2022-11-19T02:10:06.913Z,28.10
2022-11-19T02:12:41.861Z,28.10
2022-11-19T02:15:33.751Z,28.20
2022-11-19T02:18:46.650Z,28.20
2022-11-19T02:21:38.722Z,28.20
2022-11-19T02:24:16.959Z,28.30
2022-11-19T02:27:11.926Z,28.30
2022-11-19T02:29:50.049Z,28.30
2022-11-19T02:32:25.918Z,28.40
2022-11-19T02:35:05.668Z,28.50
2022-11-19T02:37:55.178Z,28.60
2022-11-19T02:40:39.909Z,28.60
2022-11-19T02:43:20.039Z,28.60
2022-11-19T02:46:15.208Z,28.80
2022-11-19T02:48:53.292Z,28.90
2022-11-19T02:51:22.251Z,29.00
2022-11-19T02:53:51.921Z,29.10
2022-11-19T02:56:52.825Z,29.30
2022-11-19T03:00:00.451Z,29.60
2022-11-19T03:02:56.535Z,29.90
2022-11-19T03:05:32.635Z,30.30
2022-11-19T03:08:02.125Z,30.60
2022-11-19T03:10:45.314Z,30.80
2022-11-19T03:13:50.374Z,30.90
2022-11-19T03:16:42.944Z,31.10
2022-11-19T03:19:39.799Z,31.30
2022-11-19T03:22:17.258Z,31.40
2022-11-19T03:24:58.738Z,31.50
2022-11-19T03:27:40.202Z,31.60
2022-11-19T03:30:10.745Z,31.80
2022-11-19T03:32:51.481Z,31.90
2022-11-19T03:35:30.588Z,32.00
2022-11-19T03:38:04.398Z,32.10
2022-11-19T03:40:35.069Z,32.10
2022-11-19T03:43:06.610Z,32.10
2022-11-19T03:45:43.425Z,32.20
2022-11-19T03:48:15.971Z,32.30
2022-11-19T03:51:10.170Z,32.40
2022-11-19T03:53:38.931Z,32.40
2022-11-19T03:56:12.367Z,32.50
2022-11-19T03:58:44.646Z,32.70
2022-11-19T04:01:14.283Z,32.70
2022-11-19T04:04:02.998Z,32.80
2022-11-19T04:06:31.964Z,32.90
2022-11-19T04:09:00.843Z,33.00
2022-11-19T04:11:29.995Z,33.10
2022-11-19T04:13:59.223Z,33.10
2022-11-19T04:16:28.672Z,33.20
2022-11-19T04:18:57.542Z,33.20
2022-11-19T04:21:26.500Z,33.20
2022-11-19T04:23:55.380Z,33.20
2022-11-19T04:26:24.254Z,33.30
2022-11-19T04:28:53.290Z,33.20
2022-11-19T04:31:22.534Z,33.30
2022-11-19T04:33:51.505Z,33.30
2022-11-19T04:36:20.414Z,33.40
2022-11-19T04:38:49.614Z,33.40
2022-11-19T04:41:18.688Z,33.40
2022-11-19T04:43:47.565Z,33.40
2022-11-19T04:46:16.550Z,33.40
2022-11-19T04:48:45.552Z,33.50
2022-11-19T04:51:14.601Z,33.60
2022-11-19T04:53:43.530Z,33.60
2022-11-19T04:56:13.234Z,33.60
2022-11-19T04:58:42.231Z,33.60
2022-11-19T05:01:11.318Z,33.60
2022-11-19T05:03:40.197Z,33.60
2022-11-19T05:06:09.430Z,33.60
2022-11-19T05:08:38.397Z,33.60
2022-11-19T05:11:07.387Z,33.50
2022-11-19T05:13:36.225Z,33.50
2022-11-19T05:16:05.408Z,33.40
2022-11-19T05:18:34.435Z,33.40
2022-11-19T05:21:03.467Z,33.30
2022-11-19T05:23:32.334Z,33.30
2022-11-19T05:26:01.343Z,33.30
2022-11-19T05:28:38.469Z,33.20
2022-11-19T05:31:09.242Z,33.10
2022-11-19T05:33:38.280Z,33.10
2022-11-19T05:36:07.702Z,33.10
2022-11-19T05:38:36.711Z,33.10
2022-11-19T05:41:05.635Z,33.10
2022-11-19T05:43:34.545Z,33.10
2022-11-19T05:46:04.260Z,33.10
2022-11-19T05:48:33.323Z,33.10
2022-11-19T05:51:02.250Z,33.20
2022-11-19T05:53:31.212Z,33.30
2022-11-19T05:56:01.292Z,33.30
2022-11-19T05:58:30.198Z,33.30
2022-11-19T06:01:01.424Z,33.30
2022-11-19T06:03:30.293Z,33.30
2022-11-19T06:05:59.189Z,33.30
2022-11-19T06:08:28.129Z,33.40
2022-11-19T06:10:57.002Z,33.40
2022-11-19T06:13:25.826Z,33.30
2022-11-19T06:15:54.984Z,33.30
2022-11-19T06:18:23.913Z,33.40
2022-11-19T06:20:52.802Z,33.40
2022-11-19T06:23:21.699Z,33.40
2022-11-19T06:25:51.859Z,33.50
2022-11-19T06:28:21.070Z,33.40
2022-11-19T06:30:49.991Z,33.40
2022-11-19T06:33:18.942Z,33.30
2022-11-19T06:35:47.855Z,33.30
2022-11-19T06:38:16.728Z,33.20
2022-11-19T06:40:47.789Z,33.30
2022-11-19T06:43:16.664Z,33.30
2022-11-19T06:45:45.691Z,33.30
2022-11-19T06:48:14.551Z,33.30
2022-11-19T06:50:43.579Z,33.20
2022-11-19T06:53:12.545Z,33.20
2022-11-19T06:55:41.481Z,33.20
2022-11-19T06:58:10.787Z,33.20
2022-11-19T07:00:39.687Z,33.30
2022-11-19T07:03:08.738Z,33.40
2022-11-19T07:05:37.750Z,33.50
2022-11-19T07:08:06.823Z,33.60
2022-11-19T07:10:36.301Z,33.70
2022-11-19T07:13:05.563Z,33.80
2022-11-19T07:15:34.584Z,33.90
2022-11-19T07:18:03.905Z,33.70
2022-11-19T07:20:32.917Z,33.60
2022-11-19T07:23:02.020Z,33.50
2022-11-19T07:25:31.001Z,33.50
2022-11-19T07:27:59.848Z,33.60
2022-11-19T07:30:28.842Z,33.60
2022-11-19T07:32:57.892Z,33.60
2022-11-19T07:35:26.908Z,33.70
2022-11-19T07:37:55.826Z,33.70
2022-11-19T07:40:24.769Z,33.60
2022-11-19T07:42:54.487Z,33.70
2022-11-19T07:45:24.469Z,33.70
2022-11-19T07:47:53.411Z,33.70
2022-11-19T07:50:22.560Z,33.60
2022-11-19T07:52:51.382Z,33.60
2022-11-19T07:55:20.395Z,33.60
2022-11-19T07:57:49.666Z,33.60
2022-11-19T08:00:18.755Z,33.60
2022-11-19T08:02:47.713Z,33.60
2022-11-19T08:05:16.939Z,33.50
2022-11-19T08:07:46.085Z,33.30
2022-11-19T08:10:14.991Z,33.10
2022-11-19T08:13:03.634Z,33.00
2022-11-19T08:15:35.932Z,33.00
2022-11-19T08:18:13.754Z,33.10
2022-11-19T08:20:44.600Z,33.10
2022-11-19T08:23:14.254Z,33.20
2022-11-19T08:25:45.617Z,33.20
2022-11-19T08:28:14.963Z,33.30
2022-11-19T08:30:43.885Z,33.30
2022-11-19T08:33:17.874Z,33.30
2022-11-19T08:35:46.888Z,33.00
2022-11-19T08:38:15.806Z,32.90
2022-11-19T08:40:44.707Z,32.80
2022-11-19T08:43:13.531Z,32.70
2022-11-19T08:45:42.400Z,32.60
2022-11-19T08:48:14.545Z,32.60
2022-11-19T08:50:43.997Z,32.50
2022-11-19T08:53:13.118Z,32.50
2022-11-19T08:55:42.062Z,32.50
2022-11-19T08:58:12.946Z,32.60
2022-11-19T09:00:41.917Z,32.70
2022-11-19T09:03:10.920Z,32.70
2022-11-19T09:05:39.851Z,32.60
2022-11-19T09:08:09.118Z,32.50
2022-11-19T09:10:39.424Z,32.40
2022-11-19T09:13:08.518Z,32.40
2022-11-19T09:15:37.904Z,32.30
2022-11-19T09:18:07.010Z,32.30
2022-11-19T09:20:37.291Z,32.20
2022-11-19T09:23:06.248Z,32.20
2022-11-19T09:25:35.248Z,32.20
2022-11-19T09:28:04.488Z,32.20
2022-11-19T09:30:33.435Z,32.20
2022-11-19T09:33:02.383Z,32.20
2022-11-19T09:35:31.292Z,32.10
2022-11-19T09:38:00.213Z,32.10
2022-11-19T09:40:29.117Z,32.10
2022-11-19T09:43:15.642Z,32.00
2022-11-19T09:46:00.396Z,32.00
2022-11-19T09:48:37.199Z,31.90
2022-11-19T09:51:18.714Z,31.90
2022-11-19T09:53:52.152Z,31.90
2022-11-19T09:56:31.326Z,31.90
2022-11-19T09:59:01.252Z,31.80
2022-11-19T10:01:32.167Z,31.70
2022-11-19T10:04:02.022Z,31.70
2022-11-19T10:06:58.282Z,31.70
2022-11-19T10:09:51.673Z,31.60
2022-11-19T10:12:38.958Z,31.60
2022-11-19T10:15:17.797Z,31.50
2022-11-19T10:17:55.521Z,31.40
2022-11-19T10:20:52.639Z,31.40
2022-11-19T10:23:31.529Z,31.40
2022-11-19T10:26:08.095Z,31.30
2022-11-19T10:28:44.093Z,31.30
2022-11-19T10:31:37.473Z,31.30
2022-11-19T10:34:29.543Z,31.30
2022-11-19T10:37:16.312Z,31.20
2022-11-19T10:40:03.099Z,31.20
2022-11-19T10:42:45.931Z,31.20
2022-11-19T10:45:20.129Z,31.10
2022-11-19T10:48:09.496Z,31.10
2022-11-19T10:50:38.694Z,31.00
2022-11-19T10:53:40.316Z,31.00
2022-11-19T10:56:16.705Z,31.00
2022-11-19T10:58:53.094Z,31.00
2022-11-19T11:01:34.756Z,30.90
2022-11-19T11:04:22.622Z,30.80
2022-11-19T11:06:57.830Z,30.70
2022-11-19T11:09:45.493Z,30.70
2022-11-19T11:12:40.599Z,30.60
2022-11-19T11:15:23.229Z,30.60
2022-11-19T11:18:03.108Z,30.50
2022-11-19T11:20:33.136Z,30.50
2022-11-19T11:23:17.286Z,30.50
2022-11-19T11:26:08.348Z,30.40
2022-11-19T11:28:37.826Z,30.40
2022-11-19T11:31:12.045Z,30.40
2022-11-19T11:33:55.307Z,30.30
2022-11-19T11:36:28.010Z,30.30
2022-11-19T11:38:58.913Z,30.30
2022-11-19T11:42:04.846Z,30.20
2022-11-19T11:44:26.892Z,30.10
2022-11-19T11:47:13.261Z,30.10
2022-11-19T11:49:46.946Z,30.10
2022-11-19T11:52:15.994Z,30.00
2022-11-19T11:54:59.624Z,30.00
2022-11-19T11:57:34.265Z,30.00
2022-11-19T12:00:06.310Z,29.90
2022-11-19T12:02:37.290Z,29.90
2022-11-19T12:05:19.571Z,29.90
2022-11-19T12:08:05.492Z,29.80
2022-11-19T12:10:47.652Z,29.80
2022-11-19T12:13:47.282Z,29.80
2022-11-19T12:16:53.109Z,29.80
2022-11-19T12:19:35.423Z,29.80
2022-11-19T12:22:48.656Z,29.80
2022-11-19T12:25:33.542Z,29.70
2022-11-19T12:28:23.362Z,29.70
2022-11-19T12:31:30.039Z,29.70
2022-11-19T12:34:22.348Z,29.60
2022-11-19T12:37:22.888Z,29.60
2022-11-19T12:40:01.212Z,29.60
2022-11-19T12:42:39.248Z,29.60
2022-11-19T12:45:37.990Z,29.50
2022-11-19T12:48:47.892Z,29.50
2022-11-19T12:51:30.697Z,29.40
2022-11-19T12:54:27.863Z,29.40
2022-11-19T12:57:10.286Z,29.30
2022-11-19T13:00:05.075Z,29.30
2022-11-19T13:03:00.353Z,29.20
2022-11-19T13:05:54.776Z,29.20
2022-11-19T13:08:23.255Z,29.10
2022-11-19T13:11:07.246Z,29.10
2022-11-19T13:13:40.657Z,29.00
2022-11-19T13:16:17.595Z,29.00
2022-11-19T13:18:52.047Z,28.90
2022-11-19T13:21:32.939Z,28.90
2022-11-19T13:24:15.317Z,28.90
2022-11-19T13:26:44.401Z,28.80
2022-11-19T13:29:25.467Z,28.80
2022-11-19T13:32:15.370Z,28.70
2022-11-19T13:35:03.483Z,28.70
2022-11-19T13:38:19.145Z,28.60
2022-11-19T13:41:15.671Z,28.60
2022-11-19T13:44:03.217Z,28.60
2022-11-19T13:46:53.132Z,28.50
2022-11-19T13:49:22.340Z,28.50
2022-11-19T13:52:19.088Z,28.40
2022-11-19T13:54:48.194Z,28.40
2022-11-19T13:57:33.979Z,28.40
2022-11-19T14:00:09.327Z,28.40
2022-11-19T14:03:00.033Z,28.30
2022-11-19T14:05:34.869Z,28.30
2022-11-19T14:08:22.137Z,28.20
2022-11-19T14:11:21.115Z,28.20
2022-11-19T14:14:08.453Z,28.20
2022-11-19T14:17:11.440Z,28.10
2022-11-19T14:20:13.858Z,28.10
2022-11-19T14:23:13.064Z,28.10
2022-11-19T14:26:08.084Z,28.00
2022-11-19T14:28:51.801Z,28.00
2022-11-19T14:31:21.967Z,28.00
2022-11-19T14:33:50.818Z,28.00
2022-11-19T14:36:42.483Z,28.00
2022-11-19T14:39:28.127Z,28.00
2022-11-19T14:42:29.527Z,27.90
2022-11-19T14:45:04.268Z,27.90
2022-11-19T14:47:37.746Z,27.90
2022-11-19T14:50:23.893Z,27.90
2022-11-19T14:53:03.451Z,27.80
2022-11-19T14:55:35.355Z,27.80
2022-11-19T14:58:28.456Z,27.80
2022-11-19T15:01:16.737Z,27.70
2022-11-19T15:04:02.446Z,27.70
2022-11-19T15:06:36.990Z,27.70
2022-11-19T15:09:06.405Z,27.70
2022-11-19T15:11:57.069Z,27.60
2022-11-19T15:14:39.822Z,27.60
2022-11-19T15:17:11.627Z,27.50
2022-11-19T15:20:14.574Z,27.50
2022-11-19T15:23:11.585Z,27.50
2022-11-19T15:26:04.970Z,27.50
2022-11-19T15:29:03.926Z,27.40
2022-11-19T15:31:47.725Z,27.40
2022-11-19T15:34:22.543Z,27.40
2022-11-19T15:36:54.433Z,27.40
2022-11-19T15:39:37.658Z,27.40
2022-11-19T15:42:13.341Z,27.30
2022-11-19T15:44:55.361Z,27.30
2022-11-19T15:47:32.291Z,27.30
2022-11-19T15:50:02.118Z,27.30
2022-11-19T15:52:33.561Z,27.20
2022-11-19T15:55:27.732Z,27.20
2022-11-19T15:57:57.369Z,27.20
2022-11-19T16:00:26.490Z,27.20
2022-11-19T16:02:55.886Z,27.10
2022-11-19T16:05:30.870Z,27.10
2022-11-19T16:08:05.144Z,27.10
2022-11-19T16:10:38.546Z,27.10
2022-11-19T16:13:46.179Z,27.10
2022-11-19T16:16:43.429Z,27.00
2022-11-19T16:19:16.445Z,27.00
2022-11-19T16:21:52.557Z,27.00
2022-11-19T16:24:41.223Z,26.90
2022-11-19T16:27:14.781Z,27.00
2022-11-19T16:29:47.656Z,26.90
2022-11-19T16:32:23.121Z,26.90
2022-11-19T16:34:52.006Z,26.80
2022-11-19T16:37:24.426Z,26.80
2022-11-19T16:39:54.658Z,26.80
2022-11-19T16:42:30.325Z,26.80
2022-11-19T16:45:08.977Z,26.80
2022-11-19T16:47:40.681Z,26.80
2022-11-19T16:50:30.089Z,26.80
2022-11-19T16:53:01.396Z,26.80
2022-11-19T16:55:30.230Z,26.70
2022-11-19T16:58:01.067Z,26.70
2022-11-19T17:00:36.886Z,26.70
2022-11-19T17:03:30.240Z,26.70
2022-11-19T17:06:00.310Z,26.70
2022-11-19T17:08:39.067Z,26.70
2022-11-19T17:11:37.045Z,26.70
2022-11-19T17:14:25.711Z,26.70
2022-11-19T17:16:55.657Z,26.70
2022-11-19T17:19:32.588Z,26.60
2022-11-19T17:22:19.309Z,26.60
2022-11-19T17:24:49.111Z,26.60
2022-11-19T17:27:26.621Z,26.60
2022-11-19T17:30:03.704Z,26.50
2022-11-19T17:32:41.431Z,26.50
2022-11-19T17:35:42.087Z,26.50
2022-11-19T17:38:20.148Z,26.50
2022-11-19T17:40:53.057Z,26.50
2022-11-19T17:43:49.934Z,26.50
2022-11-19T17:46:19.713Z,26.50
2022-11-19T17:48:50.669Z,26.50
2022-11-19T17:51:22.696Z,26.40
2022-11-19T17:53:53.207Z,26.40
2022-11-19T17:56:29.003Z,26.40
2022-11-19T17:59:00.729Z,26.30
2022-11-19T18:01:29.725Z,26.30
2022-11-19T18:03:58.714Z,26.30
2022-11-19T18:06:27.953Z,26.30
2022-11-19T18:08:56.891Z,26.30
2022-11-19T18:11:27.574Z,26.20
2022-11-19T18:13:58.971Z,26.20
2022-11-19T18:16:30.590Z,26.20
2022-11-19T18:18:59.530Z,26.20
2022-11-19T18:21:28.668Z,26.10
2022-11-19T18:23:57.534Z,26.10
2022-11-19T18:26:26.447Z,26.00
2022-11-19T18:28:57.686Z,26.00
2022-11-19T18:31:28.486Z,26.00
2022-11-19T18:33:58.696Z,26.00
2022-11-19T18:36:27.695Z,25.90
2022-11-19T18:38:56.768Z,25.90
2022-11-19T18:41:25.961Z,25.90
2022-11-19T18:44:12.948Z,25.90
2022-11-19T18:46:41.823Z,25.90
2022-11-19T18:49:10.710Z,25.90
2022-11-19T18:51:39.828Z,25.90
2022-11-19T18:54:08.684Z,25.90
2022-11-19T18:56:37.523Z,25.80
2022-11-19T18:59:06.613Z,25.80
2022-11-19T19:01:35.683Z,25.80
2022-11-19T19:04:04.656Z,25.80
2022-11-19T19:06:34.735Z,25.80
2022-11-19T19:09:04.283Z,25.70
2022-11-19T19:11:51.295Z,25.60
2022-11-19T19:14:20.380Z,25.60
2022-11-19T19:16:49.405Z,25.50
2022-11-19T19:19:20.997Z,25.40
2022-11-19T19:21:50.234Z,25.40
2022-11-19T19:24:19.199Z,25.30
2022-11-19T19:26:48.141Z,25.30
2022-11-19T19:29:17.074Z,25.30
2022-11-19T19:31:46.060Z,25.20
2022-11-19T19:34:15.033Z,25.30
2022-11-19T19:36:51.833Z,25.20
2022-11-19T19:39:22.311Z,25.20
2022-11-19T19:41:51.461Z,25.20
2022-11-19T19:44:20.385Z,25.20
2022-11-19T19:46:50.362Z,25.20
2022-11-19T19:49:20.113Z,25.20
2022-11-19T19:51:49.529Z,25.30
2022-11-19T19:54:18.998Z,25.20
2022-11-19T19:56:48.042Z,25.20
2022-11-19T19:59:17.029Z,25.20
2022-11-19T20:01:51.903Z,25.20
2022-11-19T20:04:20.857Z,25.10
2022-11-19T20:06:52.174Z,25.20
2022-11-19T20:09:21.116Z,25.10
2022-11-19T20:11:49.990Z,25.20
2022-11-19T20:14:18.931Z,25.10
2022-11-19T20:16:47.927Z,25.10
2022-11-19T20:19:17.128Z,25.10
2022-11-19T20:21:48.166Z,25.10
2022-11-19T20:24:18.525Z,25.10
2022-11-19T20:26:47.801Z,25.10
2022-11-19T20:29:18.817Z,25.10
2022-11-19T20:31:49.436Z,25.10
2022-11-19T20:34:19.131Z,25.00
2022-11-19T20:36:48.721Z,25.00
2022-11-19T20:39:17.692Z,24.90
2022-11-19T20:42:04.597Z,25.00
2022-11-19T20:44:33.543Z,24.90
2022-11-19T20:47:04.852Z,24.90
2022-11-19T20:49:37.007Z,24.90
2022-11-19T20:52:06.534Z,24.90
2022-11-19T20:54:35.895Z,24.90
2022-11-19T20:57:04.772Z,24.90
2022-11-19T20:59:34.168Z,24.90
2022-11-19T21:02:03.232Z,24.90
2022-11-19T21:04:37.387Z,24.90
2022-11-19T21:07:07.498Z,24.80
2022-11-19T21:09:36.755Z,24.80
2022-11-19T21:12:05.825Z,24.80
2022-11-19T21:14:34.833Z,24.80
2022-11-19T21:17:03.744Z,24.80
2022-11-19T21:19:32.671Z,24.90
2022-11-19T21:22:01.643Z,24.90
2022-11-19T21:24:30.663Z,24.80
2022-11-19T21:26:59.606Z,24.80
2022-11-19T21:29:28.506Z,24.80
2022-11-19T21:31:57.447Z,24.80
2022-11-19T21:34:26.322Z,24.80
2022-11-19T21:36:57.928Z,24.80
2022-11-19T21:39:27.238Z,24.80
2022-11-19T21:41:56.207Z,24.80
2022-11-19T21:44:25.543Z,24.70
2022-11-19T21:46:54.432Z,24.70
2022-11-19T21:49:24.347Z,24.70
2022-11-19T21:51:54.238Z,24.70
2022-11-19T21:54:23.262Z,24.70
2022-11-19T21:56:52.509Z,24.70
2022-11-19T21:59:21.809Z,24.70
2022-11-19T22:01:54.735Z,24.70
2022-11-19T22:04:23.905Z,24.70
2022-11-19T22:06:52.855Z,24.70
2022-11-19T22:09:21.955Z,24.80
2022-11-19T22:11:51.149Z,24.80
2022-11-19T22:14:20.341Z,24.80
2022-11-19T22:16:49.428Z,24.80
2022-11-19T22:19:18.969Z,24.80
2022-11-19T22:21:48.375Z,24.80
2022-11-19T22:24:17.364Z,24.80
2022-11-19T22:26:46.256Z,24.80
2022-11-19T22:29:15.138Z,24.70
2022-11-19T22:31:44.124Z,24.70
2022-11-19T22:34:14.037Z,24.70
2022-11-19T22:36:43.991Z,24.60
2022-11-19T22:39:14.018Z,24.60
2022-11-19T22:41:43.211Z,24.50
2022-11-19T22:44:12.200Z,24.50
2022-11-19T22:46:41.078Z,24.40
2022-11-19T22:49:10.016Z,24.40
2022-11-19T22:51:38.929Z,24.40
2022-11-19T22:54:12.723Z,24.40
2022-11-19T22:56:42.246Z,24.40
2022-11-19T22:59:11.135Z,24.40
2022-11-19T23:01:40.169Z,24.40
2022-11-19T23:04:09.927Z,24.30
2022-11-19T23:06:39.227Z,24.30
2022-11-19T23:09:09.610Z,24.30
2022-11-19T23:11:56.546Z,24.30
2022-11-19T23:14:26.455Z,24.20
2022-11-19T23:16:55.359Z,24.20
2022-11-19T23:19:24.381Z,24.20
2022-11-19T23:21:53.294Z,24.20
2022-11-19T23:24:22.329Z,24.20
2022-11-19T23:26:51.434Z,24.20
2022-11-19T23:29:20.793Z,24.20
2022-11-19T23:31:49.921Z,24.20
2022-11-19T23:34:18.910Z,24.10
2022-11-19T23:36:47.917Z,24.10
2022-11-19T23:39:19.557Z,24.10
2022-11-19T23:41:49.022Z,24.10
2022-11-19T23:44:17.915Z,24.10
2022-11-19T23:46:46.874Z,24.10
2022-11-19T23:49:15.821Z,24.10
2022-11-19T23:51:44.926Z,24.10
2022-11-19T23:54:15.355Z,24.10
2022-11-19T23:56:44.339Z,24.20
2022-11-19T23:59:13.319Z,24.20
